createdAt,value
2022-08-22T00:02:51.998Z,16.8
2022-08-22T00:03:39.661Z,16.6
2022-08-22T00:04:10.153Z,16.4
2022-08-22T00:04:45.339Z,16.0
2022-08-22T00:05:15.840Z,15.8
2022-08-22T00:05:46.335Z,15.4
2022-08-22T00:06:16.819Z,15.3
2022-08-22T00:06:47.329Z,15.2
2022-08-22T00:07:17.797Z,15.1
2022-08-22T00:07:48.267Z,15.0
2022-08-22T00:08:18.995Z,15.0
2022-08-22T00:08:49.487Z,15.0
2022-08-22T00:09:19.975Z,14.8
2022-08-22T00:09:50.458Z,14.6
2022-08-22T00:10:25.396Z,14.4
2022-08-22T00:10:56.205Z,14.3
2022-08-22T00:11:26.665Z,14.3
2022-08-22T00:11:57.137Z,14.2
2022-08-22T00:12:27.605Z,14.1
2022-08-22T00:12:58.052Z,14.1
2022-08-22T00:13:28.548Z,14.1
2022-08-22T00:14:10.212Z,14.1
2022-08-22T00:14:40.682Z,14.1
2022-08-22T00:15:12.749Z,14.0
2022-08-22T00:16:12.499Z,14.0
2022-08-22T00:16:42.996Z,13.9
2022-08-22T00:17:13.897Z,13.9
2022-08-22T00:17:44.411Z,13.8
2022-08-22T00:18:15.954Z,13.7
2022-08-22T00:18:46.471Z,13.6
2022-08-22T00:19:16.966Z,13.8
2022-08-22T00:19:47.461Z,13.8
2022-08-22T00:20:17.931Z,13.8
2022-08-22T00:20:48.852Z,13.7
2022-08-22T00:21:19.311Z,13.7
2022-08-22T00:21:52.389Z,13.5
2022-08-22T00:22:22.867Z,13.4
2022-08-22T00:22:53.341Z,13.4
2022-08-22T00:23:23.839Z,13.4
2022-08-22T00:23:54.295Z,13.3
2022-08-22T00:24:24.755Z,13.3
2022-08-22T00:24:55.238Z,13.2
2022-08-22T00:25:36.064Z,12.4
2022-08-22T00:26:06.553Z,12.3
2022-08-22T00:26:37.064Z,12.2
2022-08-22T00:27:07.547Z,12.2
2022-08-22T00:27:38.045Z,12.1
2022-08-22T00:28:15.595Z,12.2
2022-08-22T00:28:46.101Z,12.2
2022-08-22T00:29:16.576Z,12.2
2022-08-22T00:29:49.032Z,12.3
2022-08-22T00:30:19.716Z,12.2
2022-08-22T00:30:50.198Z,12.2
2022-08-22T00:31:20.659Z,12.2
2022-08-22T00:31:51.149Z,12.2
2022-08-22T00:32:21.772Z,12.1
2022-08-22T00:32:52.254Z,12.0
2022-08-22T00:33:22.737Z,12.0
2022-08-22T00:33:53.209Z,11.9
2022-08-22T00:34:23.687Z,11.8
2022-08-22T00:34:54.157Z,11.8
2022-08-22T00:35:24.653Z,11.8
2022-08-22T00:35:55.558Z,11.8
2022-08-22T00:36:26.043Z,11.6
2022-08-22T00:36:58.213Z,11.6
2022-08-22T00:37:29.953Z,11.8
2022-08-22T00:38:00.450Z,11.8
2022-08-22T00:38:30.979Z,11.8
2022-08-22T00:39:01.491Z,11.7
2022-08-22T00:39:31.998Z,11.6
2022-08-22T00:40:03.305Z,11.6
2022-08-22T00:40:34.196Z,11.6
2022-08-22T00:41:04.676Z,11.5
2022-08-22T00:41:35.185Z,11.4
2022-08-22T00:42:05.683Z,11.4
2022-08-22T00:42:49.851Z,11.3
2022-08-22T00:43:20.317Z,11.3
2022-08-22T00:43:50.805Z,11.2
2022-08-22T00:44:21.259Z,11.2
2022-08-22T00:44:51.744Z,11.1
2022-08-22T00:45:22.232Z,11.2
2022-08-22T00:45:52.713Z,11.2
2022-08-22T00:46:23.203Z,11.3
2022-08-22T00:46:53.703Z,11.4
2022-08-22T00:47:24.211Z,11.3
2022-08-22T00:47:54.696Z,11.4
2022-08-22T00:48:25.276Z,11.2
2022-08-22T00:48:58.514Z,11.1
2022-08-22T00:49:29.702Z,11.1
2022-08-22T00:50:00.235Z,11.1
2022-08-22T00:50:30.709Z,11.0
2022-08-22T00:51:01.197Z,11.0
2022-08-22T00:51:31.685Z,10.8
2022-08-22T00:52:03.437Z,10.8
2022-08-22T00:52:33.898Z,10.7
2022-08-22T00:53:06.426Z,10.7
2022-08-22T00:53:36.925Z,10.7
2022-08-22T00:54:09.640Z,10.6
2022-08-22T00:54:48.268Z,10.7
2022-08-22T00:55:18.770Z,10.6
2022-08-22T00:55:55.336Z,10.7
2022-08-22T00:56:25.833Z,10.7
2022-08-22T00:56:56.325Z,10.7
2022-08-22T00:57:26.815Z,10.7
2022-08-22T00:57:57.411Z,10.7
2022-08-22T00:58:27.970Z,10.6
2022-08-22T00:58:58.476Z,10.5
2022-08-22T00:59:44.076Z,10.5
2022-08-22T01:00:14.536Z,10.4
2022-08-22T01:00:46.822Z,10.3
2022-08-22T01:01:17.476Z,10.3
2022-08-22T01:01:48.135Z,10.2
2022-08-22T01:02:18.612Z,10.2
2022-08-22T01:02:52.365Z,10.3
2022-08-22T01:03:23.007Z,10.2
2022-08-22T01:03:53.494Z,10.1
2022-08-22T01:04:23.994Z,10.1
2022-08-22T01:04:54.484Z,10.0
2022-08-22T01:05:27.937Z,9.9
2022-08-22T01:05:58.431Z,9.9
2022-08-22T01:06:28.989Z,9.8
2022-08-22T01:06:59.476Z,10.0
2022-08-22T01:07:30.518Z,10.0
2022-08-22T01:08:09.176Z,10.1
2022-08-22T01:08:39.706Z,10.2
2022-08-22T01:09:10.219Z,10.2
2022-08-22T01:09:40.697Z,10.3
2022-08-22T01:10:11.166Z,10.2
2022-08-22T01:10:41.642Z,10.2
2022-08-22T01:11:12.115Z,10.3
2022-08-22T01:11:42.582Z,10.3
2022-08-22T01:12:13.057Z,10.4
2022-08-22T01:12:43.526Z,10.5
2022-08-22T01:13:14.007Z,10.6
2022-08-22T01:13:44.727Z,10.7
2022-08-22T01:14:15.204Z,10.7
2022-08-22T01:14:55.091Z,10.8
2022-08-22T01:15:25.580Z,10.8
2022-08-22T01:15:56.062Z,10.6
2022-08-22T01:16:26.559Z,10.3
2022-08-22T01:16:57.041Z,10.3
2022-08-22T01:18:37.606Z,10.2
2022-08-22T01:21:08.189Z,10.3
2022-08-22T01:23:54.488Z,10.4
2022-08-22T01:26:27.677Z,10.4
2022-08-22T01:28:52.139Z,10.4
2022-08-22T01:31:24.479Z,10.4
2022-08-22T01:33:55.056Z,10.4
2022-08-22T01:36:23.256Z,10.4
2022-08-22T01:39:04.707Z,10.4
2022-08-22T01:41:35.321Z,10.4
2022-08-22T01:44:05.935Z,10.7
2022-08-22T01:46:36.509Z,10.6
2022-08-22T01:49:07.121Z,10.6
2022-08-22T01:54:17.872Z,10.5
2022-08-22T01:56:48.471Z,10.5
2022-08-22T01:59:19.089Z,10.5
2022-08-22T02:01:54.601Z,10.5
2022-08-22T02:06:55.339Z,10.5
2022-08-22T02:09:35.967Z,10.7
2022-08-22T02:12:13.957Z,10.5
2022-08-22T02:14:42.554Z,10.4
2022-08-22T02:17:13.163Z,10.4
2022-08-22T02:19:43.762Z,10.3
2022-08-22T02:22:24.346Z,10.3
2022-08-22T02:24:55.255Z,10.3
2022-08-22T02:27:19.731Z,10.2
2022-08-22T02:29:52.101Z,10.2
2022-08-22T02:34:54.589Z,10.2
2022-08-22T02:37:35.195Z,10.3
2022-08-22T02:42:36.133Z,10.4
2022-08-22T02:45:06.747Z,10.3
2022-08-22T02:47:37.336Z,10.3
2022-08-22T02:50:12.218Z,10.4
2022-08-22T02:52:53.333Z,10.4
2022-08-22T02:55:24.083Z,10.4
2022-08-22T02:57:54.662Z,10.4
2022-08-22T03:00:27.705Z,10.4
2022-08-22T03:02:53.630Z,10.3
2022-08-22T03:05:24.259Z,10.2
2022-08-22T03:08:04.881Z,10.1
2022-08-22T03:10:35.484Z,10.0
2022-08-22T03:15:36.223Z,9.9
2022-08-22T03:18:10.062Z,9.9
2022-08-22T03:20:50.688Z,9.9
2022-08-22T03:23:21.276Z,9.9
2022-08-22T03:25:51.922Z,9.8
2022-08-22T03:28:17.929Z,9.7
2022-08-22T03:30:46.341Z,9.7
2022-08-22T03:33:26.949Z,9.6
2022-08-22T03:36:07.529Z,9.7
2022-08-22T03:38:38.132Z,9.6
2022-08-22T03:41:08.728Z,9.6
2022-08-22T03:43:39.340Z,9.6
2022-08-22T03:46:09.916Z,9.5
2022-08-22T03:48:40.510Z,9.6
2022-08-22T03:51:21.095Z,9.5
2022-08-22T03:56:21.848Z,9.5
2022-08-22T03:58:52.416Z,9.4
2022-08-22T04:01:22.430Z,9.3
2022-08-22T04:06:33.187Z,9.2
2022-08-22T04:09:06.655Z,9.2
2022-08-22T04:11:29.406Z,9.2
2022-08-22T04:13:59.987Z,9.2
2022-08-22T04:16:30.592Z,9.2
2022-08-22T04:21:51.350Z,9.4
2022-08-22T04:24:21.954Z,9.4
2022-08-22T04:26:52.561Z,9.4
2022-08-22T04:29:23.191Z,9.4
2022-08-22T04:31:53.781Z,9.3
2022-08-22T04:37:05.263Z,9.2
2022-08-22T04:39:35.911Z,9.2
2022-08-22T04:42:29.021Z,9.2
2022-08-22T04:44:31.805Z,9.2
2022-08-22T04:47:02.414Z,9.2
2022-08-22T04:49:43.016Z,9.3
2022-08-22T04:52:13.617Z,9.3
2022-08-22T04:54:50.077Z,9.4
2022-08-22T04:57:20.639Z,9.4
2022-08-22T04:59:51.231Z,9.5
2022-08-22T05:02:31.839Z,9.5
2022-08-22T05:04:54.699Z,9.5
2022-08-22T05:07:33.970Z,9.6
2022-08-22T05:09:56.753Z,9.7
2022-08-22T05:12:32.923Z,9.8
2022-08-22T05:17:45.228Z,10.3
2022-08-22T05:20:15.915Z,10.5
2022-08-22T05:22:46.484Z,10.9
2022-08-22T05:25:17.797Z,11.4
2022-08-22T05:27:48.967Z,11.6
2022-08-22T05:30:21.853Z,12.0
2022-08-22T05:33:02.438Z,12.4
2022-08-22T05:35:33.014Z,12.6
2022-08-22T05:37:59.739Z,12.6
2022-08-22T05:40:30.459Z,12.7
2022-08-22T05:43:01.088Z,12.5
2022-08-22T05:45:31.710Z,12.4
2022-08-22T05:48:12.299Z,12.3
2022-08-22T05:50:43.078Z,12.2
2022-08-22T05:53:13.695Z,12.4
2022-08-22T05:58:14.481Z,12.8
2022-08-22T06:00:45.079Z,13.2
2022-08-22T06:03:25.684Z,13.4
2022-08-22T06:05:58.038Z,13.2
2022-08-22T06:08:28.677Z,13.3
2022-08-22T06:10:59.265Z,13.4
2022-08-22T06:13:32.616Z,13.4
2022-08-22T06:16:08.356Z,13.3
2022-08-22T06:18:39.960Z,13.6
2022-08-22T06:21:10.582Z,13.6
2022-08-22T06:23:39.469Z,13.7
2022-08-22T06:26:20.295Z,13.7
2022-08-22T06:28:54.432Z,13.9
2022-08-22T06:31:26.215Z,13.8
2022-08-22T06:33:56.818Z,14.1
2022-08-22T06:38:57.586Z,14.4
2022-08-22T06:41:28.180Z,14.6
2022-08-22T06:43:58.786Z,15.0
2022-08-22T06:46:39.378Z,15.5
2022-08-22T06:49:09.942Z,15.8
2022-08-22T06:51:40.545Z,16.4
2022-08-22T06:54:11.142Z,16.7
2022-08-22T06:56:44.669Z,17.0
2022-08-22T06:59:15.263Z,17.1
2022-08-22T07:01:55.956Z,17.4
2022-08-22T07:04:26.764Z,17.6
2022-08-22T07:06:57.372Z,17.6
2022-08-22T07:09:27.990Z,17.9
2022-08-22T07:11:58.595Z,18.0
2022-08-22T07:14:29.157Z,18.3
2022-08-22T07:19:39.924Z,19.7
2022-08-22T07:22:10.508Z,19.8
2022-08-22T07:24:41.118Z,20.0
2022-08-22T07:27:11.709Z,20.3
2022-08-22T07:29:52.316Z,20.6
2022-08-22T07:32:25.437Z,20.8
2022-08-22T07:34:56.049Z,21.0
2022-08-22T07:37:26.631Z,21.1
2022-08-22T07:39:57.269Z,21.2
2022-08-22T07:42:30.248Z,21.2
2022-08-22T07:45:10.955Z,21.0
2022-08-22T07:47:41.555Z,21.1
2022-08-22T07:50:12.279Z,21.0
2022-08-22T07:52:42.891Z,21.2
2022-08-22T07:55:13.484Z,21.3
2022-08-22T08:00:22.638Z,21.0
2022-08-22T08:02:53.240Z,20.8
2022-08-22T08:05:23.863Z,20.7
2022-08-22T08:07:54.482Z,20.6
2022-08-22T08:10:26.191Z,20.6
2022-08-22T08:13:06.765Z,20.6
2022-08-22T08:15:37.353Z,20.6
2022-08-22T08:18:07.953Z,20.6
2022-08-22T08:20:38.559Z,20.4
2022-08-22T08:23:10.080Z,20.5
2022-08-22T08:25:38.177Z,20.6
2022-08-22T08:28:23.934Z,20.5
2022-08-22T08:30:54.990Z,20.6
2022-08-22T08:33:26.617Z,20.6
2022-08-22T08:36:02.241Z,20.4
2022-08-22T08:40:53.439Z,20.7
2022-08-22T08:43:34.032Z,20.6
2022-08-22T08:46:04.635Z,20.7
2022-08-22T08:48:38.285Z,20.8
2022-08-22T08:51:10.932Z,20.7
2022-08-22T08:53:33.941Z,20.7
2022-08-22T08:56:05.557Z,20.6
2022-08-22T08:58:50.915Z,20.7
2022-08-22T09:01:21.794Z,20.7
2022-08-22T09:03:48.336Z,20.8
2022-08-22T09:06:25.791Z,20.8
2022-08-22T09:08:57.008Z,20.9
2022-08-22T09:11:28.856Z,20.8
2022-08-22T09:14:00.200Z,20.7
2022-08-22T09:16:31.149Z,20.6
2022-08-22T09:24:08.691Z,20.6
2022-08-22T09:26:43.621Z,20.8
2022-08-22T09:29:19.083Z,20.6
2022-08-22T09:31:48.418Z,20.6
2022-08-22T09:34:23.916Z,20.6
2022-08-22T09:36:47.996Z,20.8
2022-08-22T09:39:24.209Z,20.6
2022-08-22T09:41:59.707Z,20.7
2022-08-22T09:44:34.758Z,20.8
2022-08-22T09:47:00.939Z,20.9
2022-08-22T09:49:34.978Z,20.8
2022-08-22T09:52:14.627Z,20.8
2022-08-22T09:54:44.592Z,20.9
2022-08-22T09:57:19.044Z,20.8
2022-08-22T10:02:23.308Z,20.6
2022-08-22T10:04:54.168Z,21.0
2022-08-22T10:07:20.835Z,21.2
2022-08-22T10:10:01.916Z,21.4
2022-08-22T10:12:36.558Z,21.2
2022-08-22T10:15:00.184Z,21.2
2022-08-22T10:17:32.156Z,21.2
2022-08-22T10:20:02.788Z,21.2
2022-08-22T10:22:33.452Z,21.2
2022-08-22T10:25:15.807Z,21.3
2022-08-22T10:27:42.651Z,21.2
2022-08-22T10:30:13.765Z,21.1
2022-08-22T10:32:48.160Z,21.2
2022-08-22T10:35:22.606Z,21.4
2022-08-22T10:37:48.076Z,21.4
2022-08-22T10:43:02.830Z,21.6
2022-08-22T10:45:35.696Z,21.7
2022-08-22T10:48:08.806Z,21.6
2022-08-22T10:50:31.938Z,21.6
2022-08-22T10:53:03.741Z,21.7
2022-08-22T10:55:50.008Z,21.7
2022-08-22T10:58:21.747Z,21.8
2022-08-22T11:00:45.954Z,21.8
2022-08-22T11:03:23.407Z,21.8
2022-08-22T11:05:50.142Z,21.9
2022-08-22T11:08:23.125Z,22.1
2022-08-22T11:10:56.564Z,22.3
2022-08-22T11:13:27.932Z,22.1
2022-08-22T11:16:04.113Z,22.0
2022-08-22T11:18:34.994Z,22.0
2022-08-22T11:23:46.027Z,22.4
2022-08-22T11:26:10.248Z,22.4
2022-08-22T11:28:47.288Z,22.1
2022-08-22T11:31:14.040Z,22.0
2022-08-22T11:33:47.754Z,22.2
2022-08-22T11:36:21.457Z,22.4
2022-08-22T11:39:01.123Z,22.4
2022-08-22T11:41:29.009Z,22.4
2022-08-22T11:44:02.996Z,22.2
2022-08-22T11:46:25.961Z,22.4
2022-08-22T11:49:06.557Z,22.6
2022-08-22T11:51:34.106Z,22.4
2022-08-22T11:54:15.172Z,22.4
2022-08-22T11:56:42.586Z,22.5
2022-08-22T11:59:15.682Z,22.2
2022-08-22T12:04:13.398Z,22.1
2022-08-22T12:06:44.689Z,22.2
2022-08-22T12:09:27.957Z,22.3
2022-08-22T12:12:00.979Z,22.3
2022-08-22T12:14:28.595Z,22.5
2022-08-22T12:16:54.968Z,22.8
2022-08-22T12:19:32.643Z,23.0
2022-08-22T12:22:15.226Z,23.1
2022-08-22T12:24:44.607Z,23.2
2022-08-22T12:27:18.255Z,23.2
2022-08-22T12:29:48.461Z,23.5
2022-08-22T12:32:14.439Z,23.6
2022-08-22T12:34:44.085Z,23.5
2022-08-22T12:37:24.558Z,23.3
2022-08-22T12:39:53.542Z,23.4
2022-08-22T12:44:56.894Z,23.6
2022-08-22T12:47:29.693Z,23.5
2022-08-22T12:50:02.989Z,23.7
2022-08-22T12:52:44.348Z,23.3
2022-08-22T12:55:07.287Z,23.5
2022-08-22T12:57:38.611Z,23.6
2022-08-22T13:00:11.630Z,23.6
2022-08-22T13:02:43.669Z,23.8
2022-08-22T13:05:24.853Z,23.4
2022-08-22T13:07:50.595Z,23.4
2022-08-22T13:10:27.820Z,23.4
2022-08-22T13:12:58.438Z,23.7
2022-08-22T13:15:26.759Z,23.3
2022-08-22T13:17:54.235Z,23.4
2022-08-22T13:20:35.055Z,23.6
2022-08-22T13:25:37.316Z,23.7
2022-08-22T13:28:11.863Z,23.4
2022-08-22T13:30:42.619Z,23.3
2022-08-22T13:33:15.440Z,22.9
2022-08-22T13:35:56.053Z,22.7
2022-08-22T13:38:28.528Z,23.0
2022-08-22T13:40:57.408Z,23.0
2022-08-22T13:43:28.351Z,23.1
2022-08-22T13:46:00.296Z,23.3
2022-08-22T13:48:23.822Z,23.8
2022-08-22T13:51:09.912Z,24.1
2022-08-22T13:53:49.346Z,24.2
2022-08-22T13:56:15.371Z,24.1
2022-08-22T13:58:36.272Z,23.7
2022-08-22T14:01:07.918Z,23.6
2022-08-22T14:06:32.979Z,23.5
2022-08-22T14:08:48.929Z,23.8
2022-08-22T14:11:21.178Z,24.4
2022-08-22T14:13:52.772Z,24.6
2022-08-22T14:16:24.247Z,24.6
2022-08-22T14:19:06.815Z,24.5
2022-08-22T14:21:40.448Z,24.9
2022-08-22T14:24:03.121Z,25.2
2022-08-22T14:26:37.188Z,25.2
2022-08-22T14:29:08.536Z,25.4
2022-08-22T14:31:42.190Z,25.6
2022-08-22T14:34:22.875Z,26.1
2022-08-22T14:36:55.835Z,25.4
2022-08-22T14:39:27.034Z,25.2
2022-08-22T14:41:55.428Z,25.0
2022-08-22T14:46:51.421Z,24.7
2022-08-22T14:49:34.388Z,24.8
2022-08-22T14:52:08.814Z,24.7
2022-08-22T14:54:40.143Z,24.5
2022-08-22T14:57:10.243Z,24.2
2022-08-22T14:59:42.817Z,24.2
2022-08-22T15:02:14.527Z,24.0
2022-08-22T15:04:55.157Z,24.0
2022-08-22T15:07:26.093Z,23.7
2022-08-22T15:09:49.855Z,23.7
2022-08-22T15:12:21.086Z,23.7
2022-08-22T15:14:51.977Z,23.6
2022-08-22T15:17:33.133Z,23.3
2022-08-22T15:20:04.936Z,23.5
2022-08-22T15:22:38.147Z,23.9
2022-08-22T15:27:39.764Z,24.1
2022-08-22T15:30:05.947Z,23.6
2022-08-22T15:32:51.425Z,23.5
2022-08-22T15:35:22.561Z,23.6
2022-08-22T15:37:53.926Z,23.6
2022-08-22T15:40:16.424Z,23.6
2022-08-22T15:42:51.092Z,23.2
2022-08-22T15:45:22.944Z,22.9
2022-08-22T15:48:05.622Z,22.9
2022-08-22T15:50:36.208Z,22.9
2022-08-22T15:53:07.183Z,22.8
2022-08-22T15:55:40.321Z,22.8
2022-08-22T15:58:05.336Z,23.2
2022-08-22T16:00:36.016Z,23.4
2022-08-22T16:03:19.004Z,23.2
2022-08-22T16:08:21.149Z,22.8
2022-08-22T16:10:53.801Z,22.8
2022-08-22T16:13:24.767Z,22.7
2022-08-22T16:15:58.578Z,22.6
2022-08-22T16:20:59.311Z,22.5
2022-08-22T16:23:29.923Z,22.4
2022-08-22T16:26:00.495Z,22.4
2022-08-22T16:28:56.677Z,22.4
2022-08-22T16:31:18.617Z,22.3
2022-08-22T16:33:49.244Z,22.2
2022-08-22T16:36:19.848Z,22.2
2022-08-22T16:38:50.435Z,22.2
2022-08-22T16:41:21.020Z,22.2
2022-08-22T16:43:55.038Z,22.1
2022-08-22T16:48:57.180Z,22.6
2022-08-22T16:51:27.788Z,23.0
2022-08-22T16:53:58.394Z,23.1
2022-08-22T16:56:28.992Z,23.4
2022-08-22T16:59:22.274Z,23.8
2022-08-22T17:01:48.790Z,23.8
2022-08-22T17:04:20.955Z,23.6
2022-08-22T17:06:51.589Z,23.4
2022-08-22T17:09:22.194Z,23.2
2022-08-22T17:11:52.790Z,22.8
2022-08-22T17:14:33.357Z,22.8
2022-08-22T17:17:04.215Z,22.7
2022-08-22T17:19:34.820Z,22.6
2022-08-22T17:22:06.519Z,22.2
2022-08-22T17:24:31.739Z,22.0
2022-08-22T17:29:44.392Z,21.8
2022-08-22T17:32:14.997Z,21.8
2022-08-22T17:34:45.620Z,21.3
2022-08-22T17:37:16.900Z,21.3
2022-08-22T17:39:48.206Z,21.3
2022-08-22T17:42:21.378Z,21.1
2022-08-22T17:45:02.055Z,21.2
2022-08-22T17:47:27.824Z,21.3
2022-08-22T17:49:58.463Z,21.0
2022-08-22T17:52:29.069Z,20.8
2022-08-22T17:54:59.704Z,20.7
2022-08-22T17:57:30.306Z,20.5
2022-08-22T18:00:10.923Z,20.4
2022-08-22T18:02:41.512Z,20.3
2022-08-22T18:05:12.112Z,20.1
2022-08-22T18:10:12.849Z,19.9
2022-08-22T18:12:53.967Z,19.6
2022-08-22T18:15:27.828Z,19.5
2022-08-22T18:17:58.632Z,19.4
2022-08-22T18:20:29.320Z,19.2
2022-08-22T18:23:00.099Z,19.1
2022-08-22T18:25:30.356Z,18.9
2022-08-22T18:28:11.586Z,18.8
2022-08-22T18:30:42.210Z,18.6
2022-08-22T18:33:13.658Z,18.4
2022-08-22T18:35:45.369Z,18.2
2022-08-22T18:38:19.356Z,18.0
2022-08-22T18:40:50.486Z,17.8
2022-08-22T18:43:31.129Z,17.6
2022-08-22T18:46:04.033Z,17.4
2022-08-22T18:50:54.866Z,17.0
2022-08-22T18:53:25.482Z,16.9
2022-08-22T18:55:56.074Z,16.7
2022-08-22T18:58:36.680Z,16.6
2022-08-22T19:01:06.720Z,16.4
2022-08-22T19:03:45.081Z,16.3
2022-08-22T19:06:15.674Z,16.2
2022-08-22T19:08:50.400Z,16.2
2022-08-22T19:11:23.566Z,16.2
2022-08-22T19:13:57.578Z,16.2
2022-08-22T19:16:28.155Z,16.2
2022-08-22T19:18:58.779Z,16.2
2022-08-22T19:21:27.662Z,16.2
2022-08-22T19:23:58.479Z,16.3
2022-08-22T19:26:39.088Z,16.2
2022-08-22T19:31:39.822Z,16.3
2022-08-22T19:34:11.210Z,16.3
2022-08-22T19:36:41.815Z,16.3
2022-08-22T19:39:12.860Z,16.3
2022-08-22T19:41:56.199Z,16.3
2022-08-22T19:44:24.621Z,16.2
2022-08-22T19:46:56.007Z,16.1
2022-08-22T19:49:26.615Z,15.9
2022-08-22T19:51:57.292Z,15.7
2022-08-22T19:54:28.026Z,15.6
2022-08-22T19:57:10.123Z,15.4
2022-08-22T19:59:40.884Z,15.3
2022-08-22T20:02:11.200Z,15.1
2022-08-22T20:04:42.560Z,15.0
2022-08-22T20:07:14.512Z,15.0
2022-08-22T20:12:25.756Z,14.8
2022-08-22T20:14:56.307Z,14.8
2022-08-22T20:17:26.906Z,14.8
2022-08-22T20:20:18.314Z,15.0
2022-08-22T20:22:26.314Z,15.0
2022-08-22T20:25:06.929Z,15.2
2022-08-22T20:27:39.292Z,15.3
2022-08-22T20:30:10.041Z,15.2
2022-08-22T20:32:34.744Z,15.0
2022-08-22T20:35:05.430Z,14.8
2022-08-22T20:37:50.625Z,14.5
2022-08-22T20:40:32.276Z,14.2
2022-08-22T20:42:51.728Z,13.9
2022-08-22T20:45:21.896Z,13.7
2022-08-22T20:47:49.477Z,13.5
2022-08-22T20:52:52.087Z,13.2
2022-08-22T20:55:39.852Z,13.0
2022-08-22T20:58:10.432Z,12.8
2022-08-22T21:00:34.847Z,12.8
2022-08-22T21:03:05.532Z,12.6
2022-08-22T21:05:36.143Z,12.5
2022-08-22T21:08:17.355Z,12.4
2022-08-22T21:10:48.062Z,12.1
2022-08-22T21:13:18.669Z,11.9
2022-08-22T21:15:49.274Z,11.8
2022-08-22T21:18:19.885Z,11.6
2022-08-22T21:20:50.503Z,11.5
2022-08-22T21:23:37.762Z,11.4
2022-08-22T21:26:01.256Z,11.3
2022-08-22T21:28:31.853Z,11.2
2022-08-22T21:33:32.600Z,11.1
2022-08-22T21:36:03.176Z,11.1
2022-08-22T21:38:53.817Z,11.0
2022-08-22T21:41:24.416Z,11.0
2022-08-22T21:43:55.037Z,10.9
2022-08-22T21:46:25.628Z,11.0
2022-08-22T21:48:46.988Z,11.0
2022-08-22T21:51:17.567Z,11.0
2022-08-22T21:54:17.462Z,11.1
2022-08-22T21:56:29.935Z,11.2
2022-08-22T21:59:00.547Z,11.2
2022-08-22T22:01:35.278Z,11.2
2022-08-22T22:04:07.021Z,11.2
2022-08-22T22:06:48.626Z,11.1
2022-08-22T22:09:19.244Z,11.2
2022-08-22T22:14:17.530Z,11.0
2022-08-22T22:16:48.084Z,10.8
2022-08-22T22:19:18.671Z,10.7
2022-08-22T22:21:59.278Z,10.6
2022-08-22T22:24:29.897Z,10.5
2022-08-22T22:27:00.488Z,10.5
2022-08-22T22:29:36.836Z,10.6
2022-08-22T22:32:07.448Z,10.7
2022-08-22T22:34:38.041Z,10.6
2022-08-22T22:37:18.636Z,10.6
2022-08-22T22:39:52.128Z,10.6
2022-08-22T22:42:17.859Z,10.4
2022-08-22T22:44:48.464Z,10.4
2022-08-22T22:47:19.043Z,10.4
2022-08-22T22:49:49.637Z,10.3
2022-08-22T22:55:00.369Z,10.0
2022-08-22T22:57:39.630Z,10.0
2022-08-22T23:00:00.665Z,9.9
2022-08-22T23:02:33.819Z,9.9
2022-08-22T23:05:14.449Z,9.7
2022-08-22T23:07:45.103Z,9.5
2022-08-22T23:10:18.821Z,9.4
2022-08-22T23:12:42.369Z,9.4
2022-08-22T23:15:22.985Z,9.5
2022-08-22T23:17:53.572Z,9.5
2022-08-22T23:20:34.191Z,9.5
2022-08-22T23:23:04.854Z,9.4
2022-08-22T23:28:05.622Z,9.3
2022-08-22T23:30:36.242Z,9.3
2022-08-22T23:35:47.007Z,9.3
2022-08-22T23:38:10.469Z,9.4
2022-08-22T23:40:42.457Z,9.3
2022-08-22T23:43:16.933Z,9.2
2022-08-22T23:45:47.544Z,9.1
2022-08-22T23:48:18.147Z,9.1
2022-08-22T23:50:58.740Z,9.1
2022-08-22T23:53:33.284Z,9.0
2022-08-22T23:56:03.891Z,9.0
2022-08-22T23:58:30.033Z,9.0
